createdAt,value
2023-02-03T00:03:15.559Z,16.77
2023-02-03T00:09:17.731Z,15.38
2023-02-03T00:15:20.398Z,15.27
2023-02-03T00:21:22.287Z,14.50
2023-02-03T00:27:24.207Z,14.05
2023-02-03T00:33:25.948Z,13.20
2023-02-03T00:39:27.853Z,12.57
2023-02-03T00:45:29.753Z,12.57
2023-02-03T00:51:32.420Z,12.35
2023-02-03T00:57:34.277Z,12.10
2023-02-03T01:03:36.511Z,12.20
2023-02-03T01:09:38.581Z,12.32
2023-02-03T01:15:47.917Z,12.18
2023-02-03T01:21:49.906Z,12.43
2023-02-03T01:27:52.007Z,12.07
2023-02-03T01:33:54.908Z,11.75
2023-02-03T01:39:57.676Z,12.18
2023-02-03T01:46:02.967Z,11.30
2023-02-03T01:52:05.752Z,12.55
2023-02-03T01:58:25.795Z,11.65
2023-02-03T02:04:37.042Z,11.15
2023-02-03T02:10:39.372Z,11.25
2023-02-03T02:17:04.407Z,11.73
2023-02-03T02:23:25.046Z,11.68
2023-02-03T02:29:26.891Z,12.13
2023-02-03T02:35:38.648Z,10.48
2023-02-03T02:41:56.263Z,11.63
2023-02-03T02:48:10.351Z,10.70
2023-02-03T02:54:17.890Z,10.40
2023-02-03T03:00:20.658Z,9.80
2023-02-03T03:06:31.392Z,9.63
2023-02-03T03:12:37.688Z,10.27
2023-02-03T03:18:45.976Z,9.63
2023-02-03T03:24:52.575Z,10.15
2023-02-03T03:30:54.644Z,9.40
2023-02-03T03:37:32.124Z,9.88
2023-02-03T03:43:39.080Z,8.95
2023-02-03T03:49:45.144Z,9.50
2023-02-03T03:55:50.539Z,8.77
2023-02-03T04:01:53.321Z,8.85
2023-02-03T04:07:55.242Z,7.78
2023-02-03T04:13:57.081Z,7.97
2023-02-03T04:19:58.887Z,7.25
2023-02-03T04:26:01.763Z,7.50
2023-02-03T04:32:04.060Z,7.25
2023-02-03T04:38:05.851Z,7.03
2023-02-03T04:44:07.685Z,6.50
2023-02-03T04:50:09.807Z,5.65
2023-02-03T04:56:11.857Z,5.30
2023-02-03T05:02:14.215Z,5.57
2023-02-03T05:08:16.421Z,5.72
2023-02-03T05:14:18.363Z,5.15
2023-02-03T05:20:20.915Z,4.88
2023-02-03T05:26:24.265Z,4.95
2023-02-03T05:32:26.113Z,4.65
2023-02-03T05:38:28.262Z,4.50
2023-02-03T05:44:30.409Z,4.22
2023-02-03T05:50:33.553Z,3.75
2023-02-03T05:56:35.830Z,4.20
2023-02-03T06:02:38.270Z,3.75
2023-02-03T06:08:40.701Z,4.00
2023-02-03T06:14:42.585Z,4.80
2023-02-03T06:20:44.472Z,4.45
2023-02-03T06:26:46.506Z,4.53
2023-02-03T06:32:48.819Z,4.65
2023-02-03T06:38:50.663Z,5.68
2023-02-03T06:44:52.638Z,5.45
2023-02-03T06:50:54.675Z,4.70
2023-02-03T06:56:56.591Z,5.25
2023-02-03T07:02:59.720Z,5.90
2023-02-03T07:09:04.283Z,5.13
2023-02-03T07:15:06.782Z,5.55
2023-02-03T07:21:08.539Z,5.05
2023-02-03T07:27:10.281Z,5.13
2023-02-03T07:33:12.085Z,5.70
2023-02-03T07:39:16.450Z,5.68
2023-02-03T07:45:19.052Z,5.57
2023-02-03T07:51:21.045Z,5.60
2023-02-03T07:57:24.953Z,6.05
2023-02-03T08:03:26.766Z,6.13
2023-02-03T08:09:28.505Z,5.82
2023-02-03T08:15:30.342Z,6.13
2023-02-03T08:21:32.171Z,6.03
2023-02-03T08:27:34.431Z,5.18
2023-02-03T08:33:36.144Z,5.30
2023-02-03T08:39:40.555Z,5.43
2023-02-03T08:45:42.487Z,5.38
2023-02-03T08:51:45.988Z,4.78
2023-02-03T08:57:47.894Z,4.95
2023-02-03T09:03:49.697Z,5.13
2023-02-03T09:09:52.821Z,4.72
2023-02-03T09:15:54.550Z,3.90
2023-02-03T09:21:57.341Z,5.00
2023-02-03T09:28:01.937Z,5.93
2023-02-03T09:34:03.803Z,5.32
2023-02-03T09:40:06.121Z,5.88
2023-02-03T09:46:19.780Z,5.38
2023-02-03T09:52:25.375Z,5.00
2023-02-03T09:58:33.069Z,5.20
2023-02-03T10:04:41.571Z,4.63
2023-02-03T10:11:13.702Z,4.57
2023-02-03T10:17:26.429Z,4.35
2023-02-03T10:23:36.282Z,4.10
2023-02-03T10:29:42.764Z,3.95
2023-02-03T10:35:57.546Z,3.03
2023-02-03T10:48:04.452Z,2.75
2023-02-03T10:54:27.804Z,2.20
2023-02-03T11:00:32.718Z,2.50
2023-02-03T11:06:36.310Z,2.10
2023-02-03T11:12:38.199Z,2.80
2023-02-03T11:18:48.234Z,2.53
2023-02-03T11:24:50.099Z,3.47
2023-02-03T11:30:59.096Z,2.15
2023-02-03T11:37:27.283Z,1.90
2023-02-03T11:43:30.590Z,2.22
2023-02-03T11:50:11.614Z,2.70
2023-02-03T11:56:20.912Z,3.25
2023-02-03T12:03:12.086Z,3.22
2023-02-03T12:09:23.172Z,3.80
2023-02-03T12:15:31.092Z,3.45
2023-02-03T12:21:47.443Z,3.63
2023-02-03T12:28:09.709Z,2.80
2023-02-03T12:34:28.213Z,3.22
2023-02-03T12:40:37.594Z,2.67
2023-02-03T12:46:56.079Z,3.05
2023-02-03T12:53:06.130Z,3.10
2023-02-03T12:59:16.196Z,3.78
2023-02-03T13:05:53.115Z,3.38
2023-02-03T13:12:07.033Z,2.85
2023-02-03T13:18:17.562Z,2.93
2023-02-03T13:24:23.447Z,3.17
2023-02-03T13:30:40.960Z,3.22
2023-02-03T13:37:12.432Z,4.00
2023-02-03T13:43:37.236Z,3.15
2023-02-03T13:49:46.262Z,4.22
2023-02-03T13:55:58.077Z,3.60
2023-02-03T14:02:38.713Z,4.47
2023-02-03T14:08:40.503Z,3.00
2023-02-03T14:14:43.609Z,2.85
2023-02-03T14:20:49.019Z,3.83
2023-02-03T14:26:53.981Z,3.53
2023-02-03T14:32:58.690Z,2.80
2023-02-03T14:39:04.134Z,3.38
2023-02-03T14:45:17.735Z,3.97
2023-02-03T14:51:35.016Z,3.78
2023-02-03T14:57:53.904Z,3.55
2023-02-03T15:04:13.780Z,3.55
2023-02-03T15:10:22.164Z,3.45
2023-02-03T15:16:27.230Z,2.50
2023-02-03T15:22:30.808Z,2.67
2023-02-03T15:28:34.676Z,4.25
2023-02-03T15:34:41.549Z,2.47
2023-02-03T15:40:54.855Z,3.38
2023-02-03T15:46:57.996Z,3.15
2023-02-03T15:53:47.165Z,2.63
2023-02-03T15:59:55.567Z,2.80
2023-02-03T16:05:57.528Z,2.78
2023-02-03T16:12:30.061Z,3.72
2023-02-03T16:18:38.052Z,3.53
2023-02-03T16:24:43.014Z,3.25
2023-02-03T16:31:18.682Z,2.92
2023-02-03T16:37:41.991Z,3.75
2023-02-03T16:44:05.081Z,3.70
2023-02-03T16:50:37.761Z,3.63
2023-02-03T16:56:41.613Z,2.88
2023-02-03T17:02:46.435Z,3.83
2023-02-03T17:08:48.186Z,3.45
2023-02-03T17:14:50.631Z,3.13
2023-02-03T17:20:52.821Z,2.80
2023-02-03T17:26:56.384Z,2.90
2023-02-03T17:58:01.423Z,2.88
2023-02-03T18:04:04.795Z,2.88
2023-02-03T18:10:06.796Z,2.88
2023-02-03T18:16:15.297Z,3.30
2023-02-03T18:22:17.091Z,2.47
2023-02-03T18:28:19.209Z,3.33
2023-02-03T18:34:20.997Z,2.72
2023-02-03T18:40:22.828Z,3.50
2023-02-03T18:46:41.812Z,3.72
2023-02-03T18:52:44.065Z,3.38
2023-02-03T18:58:46.519Z,3.15
2023-02-03T19:04:49.059Z,3.53
2023-02-03T19:10:54.865Z,3.10
2023-02-03T19:16:57.407Z,3.33
2023-02-03T19:23:00.502Z,3.47
2023-02-03T19:29:05.049Z,3.20
2023-02-03T19:35:07.112Z,2.88
2023-02-03T19:41:09.851Z,3.05
2023-02-03T19:47:11.624Z,2.72
2023-02-03T19:53:14.890Z,3.40
2023-02-03T19:59:16.728Z,3.85
2023-02-03T20:05:19.402Z,2.83
2023-02-03T20:11:21.617Z,3.25
2023-02-03T20:17:24.343Z,3.17
2023-02-03T20:23:26.544Z,3.40
2023-02-03T20:29:28.475Z,3.90
2023-02-03T20:35:30.838Z,3.00
2023-02-03T20:41:32.849Z,3.28
2023-02-03T20:47:34.733Z,5.05
2023-02-03T20:53:37.071Z,3.55
2023-02-03T20:59:39.103Z,3.90
2023-02-03T21:05:42.884Z,3.53
2023-02-03T21:11:44.781Z,3.97
2023-02-03T21:17:46.713Z,4.10
2023-02-03T21:23:48.534Z,4.30
2023-02-03T21:29:50.466Z,2.83
2023-02-03T21:35:52.279Z,3.25
2023-02-03T21:41:54.616Z,3.97
2023-02-03T21:48:01.567Z,3.63
2023-02-03T21:54:27.371Z,3.97
2023-02-03T22:00:43.421Z,4.03
2023-02-03T22:06:50.242Z,4.35
2023-02-03T22:12:52.229Z,3.47
2023-02-03T22:18:54.039Z,4.10
2023-02-03T22:24:55.866Z,3.60
2023-02-03T22:30:57.816Z,3.58
2023-02-03T22:36:59.621Z,4.53
2023-02-03T22:43:01.534Z,3.45
2023-02-03T22:49:03.307Z,3.80
2023-02-03T22:55:06.544Z,4.40
2023-02-03T23:01:08.369Z,4.38
2023-02-03T23:07:10.153Z,3.28
2023-02-03T23:13:12.042Z,4.05
2023-02-03T23:19:13.892Z,4.28
2023-02-03T23:25:18.318Z,3.58
2023-02-03T23:31:20.260Z,3.78
2023-02-03T23:37:22.665Z,3.28
2023-02-03T23:43:24.597Z,4.38
2023-02-03T23:49:26.522Z,3.53
2023-02-03T23:55:29.450Z,3.67
